Time;durP1;ratioP1;P1;durP2;ratioP2;P2;SDS_P1;SDS_P2;PMS_P1;PMS_P2;Temp;Humidity;BMP_temperature;BMP_pressure;BME280_temperature;BME280_humidity;BME280_pressure;Samples;Min_cycle;Max_cycle;Signal;HPM_P1;HPM_P2
2022/10/16 00:01:59;;;;;;;4.10;1.10;;;12.20;99.90;;;;;;5059151;28;20049;-81
2022/10/16 00:04:24;;;;;;;1.88;1.00;;;12.20;99.90;;;;;;5054303;28;20051;-81
2022/10/16 00:06:50;;;;;;;3.35;1.30;;;12.20;99.90;;;;;;5054028;28;20041;-81
2022/10/16 00:09:16;;;;;;;2.85;1.33;;;12.20;99.90;;;;;;5040266;28;20123;-81
2022/10/16 00:11:41;;;;;;;2.70;1.13;;;12.10;99.90;;;;;;5036420;28;20505;-81
2022/10/16 00:14:11;;;;;;;3.45;1.08;;;12.10;99.90;;;;;;5047943;28;20071;-81
2022/10/16 00:16:37;;;;;;;2.10;1.20;;;12.10;99.90;;;;;;5073953;28;20036;-82
2022/10/16 00:19:04;;;;;;;1.83;1.08;;;12.10;99.90;;;;;;5053174;28;20041;-82
2022/10/16 00:21:31;;;;;;;3.45;0.80;;;12.10;99.90;;;;;;5046698;28;20037;-82
2022/10/16 00:23:59;;;;;;;1.00;0.80;;;12.10;99.90;;;;;;5059672;28;20041;-82
2022/10/16 00:26:27;;;;;;;5.85;1.30;;;12.00;99.90;;;;;;5058607;28;20037;-82
2022/10/16 00:28:52;;;;;;;2.90;1.48;;;12.00;99.90;;;;;;5068010;28;20043;-82
2022/10/16 00:31:21;;;;;;;3.45;1.85;;;12.00;99.90;;;;;;5057133;28;20037;-82
2022/10/16 00:33:47;;;;;;;4.85;1.02;;;12.00;99.90;;;;;;5058238;28;20040;-83
2022/10/16 00:36:17;;;;;;;4.80;2.13;;;12.00;99.90;;;;;;5064323;28;20410;-82
2022/10/16 00:38:43;;;;;;;3.67;1.10;;;12.00;99.90;;;;;;5073816;28;20072;-83
2022/10/16 00:41:13;;;;;;;1.92;0.93;;;12.00;99.90;;;;;;5054758;28;20371;-83
2022/10/16 00:43:48;;;;;;;3.75;1.30;;;12.00;99.90;;;;;;5073493;28;20040;-82
2022/10/16 00:46:24;;;;;;;1.15;0.73;;;12.10;99.90;;;;;;5073806;28;20040;-82
2022/10/16 00:48:59;;;;;;;4.35;1.48;;;12.10;99.90;;;;;;5069444;28;20048;-82
2022/10/16 00:51:51;;;;;;;4.25;1.65;;;12.10;99.90;;;;;;5073163;28;20044;-82
2022/10/16 00:54:26;;;;;;;5.30;1.30;;;12.20;99.90;;;;;;5042477;28;20045;-83
2022/10/16 00:56:53;;;;;;;4.05;1.17;;;12.20;99.90;;;;;;5053303;28;20128;-82
2022/10/16 00:59:25;;;;;;;8.40;2.97;;;12.20;99.90;;;;;;5057922;28;20479;-82
2022/10/16 01:01:51;;;;;;;1.42;0.93;;;12.20;99.90;;;;;;5066418;28;20085;-83
2022/10/16 01:04:18;;;;;;;2.25;1.08;;;12.20;99.90;;;;;;5056522;28;20040;-82
2022/10/16 01:07:40;;;;;;;4.65;1.30;;;12.20;99.90;;;;;;5073290;28;20090;-83
2022/10/16 01:10:37;;;;;;;2.47;0.93;;;12.20;99.90;;;;;;5011921;28;20049;-82
2022/10/16 01:13:26;;;;;;;5.20;1.80;;;12.30;99.90;;;;;;4988114;28;20042;-82
2022/10/16 01:16:01;;;;;;;3.05;0.98;;;12.30;99.90;;;;;;5050050;28;20388;-82
2022/10/16 01:18:52;;;;;;;5.28;1.15;;;12.30;99.90;;;;;;5061718;28;20032;-82
2022/10/16 01:21:40;;;;;;;2.70;0.98;;;12.30;99.90;;;;;;5055906;28;20051;-83
2022/10/16 01:24:41;;;;;;;1.67;0.90;;;12.30;99.90;;;;;;5073000;28;20049;-81
2022/10/16 01:27:13;;;;;;;4.93;1.30;;;12.30;99.90;;;;;;5072253;28;20382;-81
2022/10/16 01:29:49;;;;;;;3.80;1.10;;;12.30;99.90;;;;;;5072853;28;20127;-81
2022/10/16 01:32:15;;;;;;;;;;;12.40;99.90;;;;;;5073298;28;20045;-81
2022/10/16 01:34:49;;;;;;;2.13;1.17;;;;;;;;;;5058705;28;19916;-81
2022/10/16 01:37:26;;;;;;;3.22;1.17;;;12.40;99.90;;;;;;5072889;28;20829;-81
2022/10/16 01:39:58;;;;;;;1.80;1.10;;;12.40;99.90;;;;;;5058290;28;20052;-81
2022/10/16 01:42:36;;;;;;;1.63;0.80;;;12.40;99.90;;;;;;5059867;28;20170;-81
2022/10/16 01:45:03;;;;;;;1.45;1.10;;;12.40;99.90;;;;;;5065117;28;20390;-81
2022/10/16 01:47:31;;;;;;;5.05;1.38;;;12.40;99.90;;;;;;5052426;28;20044;-81
2022/10/16 01:49:58;;;;;;;3.67;1.30;;;12.40;99.90;;;;;;5062828;28;20067;-81
2022/10/16 01:52:27;;;;;;;5.38;1.35;;;12.50;99.90;;;;;;5071565;28;20040;-81
2022/10/16 01:54:56;;;;;;;4.35;1.30;;;12.50;99.90;;;;;;5057770;28;20033;-81
2022/10/16 01:57:25;;;;;;;6.25;1.88;;;12.50;99.90;;;;;;5074599;28;20060;-81
2022/10/16 01:59:54;;;;;;;1.90;1.10;;;12.50;99.90;;;;;;5071872;28;20099;-81
2022/10/16 02:02:21;;;;;;;4.20;1.33;;;12.60;99.90;;;;;;5071973;28;20445;-81
2022/10/16 02:04:57;;;;;;;3.85;1.52;;;12.60;99.90;;;;;;5072616;28;20083;-81
2022/10/16 02:07:23;;;;;;;;;;;12.60;99.90;;;;;;5072907;28;20048;-81
2022/10/16 02:09:50;;;;;;;2.00;1.17;;;12.60;99.90;;;;;;5056392;28;19916;-81
2022/10/16 02:12:23;;;;;;;3.22;1.73;;;12.60;99.90;;;;;;5060841;23;20053;-81
2022/10/16 02:14:49;;;;;;;2.97;1.42;;;12.60;99.90;;;;;;5030777;28;20079;-80
2022/10/16 02:17:17;;;;;;;4.38;1.25;;;12.70;99.90;;;;;;5034013;28;20068;-80
2022/10/16 02:19:45;;;;;;;3.03;1.42;;;12.60;99.90;;;;;;5051413;28;20037;-80
2022/10/16 02:22:26;;;;;;;2.33;1.20;;;12.60;99.90;;;;;;5050610;28;20045;-80
2022/10/16 02:25:08;;;;;;;3.20;1.35;;;12.70;99.90;;;;;;5050644;28;20430;-80
2022/10/16 02:28:03;;;;;;;2.85;1.52;;;12.70;99.90;;;;;;5034991;28;20047;-80
2022/10/16 02:30:38;;;;;;;1.85;1.20;;;12.70;99.90;;;;;;5050841;28;20033;-82
2022/10/16 02:33:07;;;;;;;3.88;1.20;;;12.70;99.90;;;;;;5052015;28;20055;-83
2022/10/16 02:35:33;;;;;;;2.80;1.00;;;12.70;99.90;;;;;;5054201;28;20116;-82
2022/10/16 02:38:00;;;;;;;2.58;1.40;;;12.60;99.90;;;;;;5038280;28;20055;-82
2022/10/16 02:40:26;;;;;;;1.63;1.00;;;12.60;99.90;;;;;;5025416;28;20072;-82
2022/10/16 02:42:54;;;;;;;2.00;1.08;;;12.60;99.90;;;;;;5021415;28;20041;-82
2022/10/16 02:45:20;;;;;;;2.22;1.30;;;12.50;99.90;;;;;;5037253;28;20048;-82
2022/10/16 02:47:45;;;;;;;1.75;1.33;;;12.40;99.90;;;;;;5037878;28;20138;-82
2022/10/16 02:50:11;;;;;;;2.72;1.40;;;12.30;99.90;;;;;;5053996;28;20109;-83
2022/10/16 02:52:37;;;;;;;2.00;1.30;;;12.20;99.90;;;;;;5037747;28;20045;-83
2022/10/16 02:55:03;;;;;;;2.45;1.15;;;12.20;99.90;;;;;;5035471;28;20044;-82
2022/10/16 02:57:29;;;;;;;4.63;1.60;;;12.20;99.90;;;;;;5038159;28;20257;-82
2022/10/16 02:59:54;;;;;;;1.90;1.17;;;12.10;99.90;;;;;;5037525;28;20103;-82
2022/10/16 03:02:20;;;;;;;3.17;1.30;;;12.10;99.90;;;;;;5052981;28;20037;-83
2022/10/16 03:04:46;;;;;;;3.60;1.38;;;12.10;99.90;;;;;;5037055;28;20120;-81
2022/10/16 03:07:12;;;;;;;4.28;1.20;;;12.00;99.90;;;;;;5052818;28;20453;-81
2022/10/16 03:09:37;;;;;;;2.50;1.30;;;12.00;99.90;;;;;;5053622;28;20048;-81
2022/10/16 03:12:03;;;;;;;2.42;1.50;;;12.00;99.90;;;;;;5036114;28;20120;-81
2022/10/16 03:14:29;;;;;;;3.53;1.83;;;12.00;99.90;;;;;;5034671;28;20045;-81
2022/10/16 03:16:55;;;;;;;3.55;1.25;;;12.00;99.90;;;;;;5036021;28;20102;-81
2022/10/16 03:19:20;;;;;;;4.13;1.45;;;12.00;99.90;;;;;;5035176;28;20037;-81
2022/10/16 03:21:46;;;;;;;3.55;1.38;;;12.00;99.90;;;;;;5045819;28;20040;-80
2022/10/16 03:24:12;;;;;;;2.38;1.00;;;12.00;99.90;;;;;;5053969;28;20456;-80
2022/10/16 03:26:37;;;;;;;2.67;1.20;;;11.90;99.90;;;;;;5048195;28;20041;-80
2022/10/16 03:29:03;;;;;;;2.72;1.13;;;11.90;99.90;;;;;;5034102;28;20128;-80
2022/10/16 03:31:29;;;;;;;3.05;1.23;;;11.90;99.90;;;;;;5027120;28;20052;-80
2022/10/16 03:33:56;;;;;;;3.17;1.20;;;11.90;99.90;;;;;;5049646;28;20030;-80
2022/10/16 03:36:21;;;;;;;4.47;1.55;;;11.90;99.90;;;;;;5045046;28;20025;-79
2022/10/16 03:38:47;;;;;;;3.20;1.33;;;11.80;99.90;;;;;;5021355;28;20044;-80
2022/10/16 03:41:13;;;;;;;1.45;1.17;;;11.80;99.90;;;;;;5052425;28;20040;-80
2022/10/16 03:43:38;;;;;;;3.47;1.20;;;11.80;99.90;;;;;;5019675;28;20083;-80
2022/10/16 03:46:04;;;;;;;4.15;1.30;;;11.80;99.90;;;;;;5053435;28;20402;-80
2022/10/16 03:48:30;;;;;;;2.05;1.30;;;11.80;99.90;;;;;;5021101;28;20048;-80
2022/10/16 03:50:55;;;;;;;2.70;1.25;;;11.80;99.90;;;;;;5037222;28;20033;-79
2022/10/16 03:53:21;;;;;;;1.92;0.98;;;11.70;99.90;;;;;;5036566;28;20041;-81
2022/10/16 03:55:47;;;;;;;1.98;1.17;;;11.70;99.90;;;;;;5036342;28;20037;-81
2022/10/16 03:58:13;;;;;;;2.33;1.23;;;11.70;99.90;;;;;;5035137;28;20068;-81
2022/10/16 04:00:42;;;;;;;1.67;1.10;;;11.70;99.90;;;;;;5048256;28;20115;-81
2022/10/16 04:03:08;;;;;;;1.25;1.10;;;11.70;99.90;;;;;;5036232;28;20139;-81
2022/10/16 04:05:34;;;;;;;3.42;1.13;;;11.70;99.90;;;;;;5051878;28;20128;-81
2022/10/16 04:08:00;;;;;;;2.20;1.23;;;11.80;99.90;;;;;;5051159;28;20120;-81
2022/10/16 04:10:26;;;;;;;2.83;1.30;;;11.80;99.90;;;;;;5053547;28;20040;-81
2022/10/16 04:12:52;;;;;;;3.03;1.15;;;11.80;99.90;;;;;;5029844;28;20059;-81
2022/10/16 04:15:17;;;;;;;1.48;0.80;;;11.80;99.90;;;;;;5052063;28;20045;-81
2022/10/16 04:17:43;;;;;;;2.67;1.33;;;11.80;99.90;;;;;;5053441;28;20047;-81
2022/10/16 04:20:09;;;;;;;2.25;1.38;;;11.80;99.90;;;;;;5050749;28;20087;-81
2022/10/16 04:22:34;;;;;;;3.42;1.20;;;11.90;99.90;;;;;;5032495;28;20041;-81
2022/10/16 04:25:00;;;;;;;2.97;1.17;;;11.90;99.90;;;;;;5049925;28;20041;-81
2022/10/16 04:27:26;;;;;;;3.08;1.10;;;12.00;99.90;;;;;;5061453;28;20045;-83
2022/10/16 04:29:51;;;;;;;1.67;1.10;;;12.10;99.90;;;;;;5033993;28;20033;-82
2022/10/16 04:32:17;;;;;;;1.58;1.17;;;12.20;99.90;;;;;;5052792;28;20483;-82
2022/10/16 04:34:43;;;;;;;1.90;1.20;;;12.20;99.90;;;;;;5050140;28;20053;-82
2022/10/16 04:37:09;;;;;;;3.85;1.45;;;12.30;99.90;;;;;;5025749;28;20036;-83
2022/10/16 04:39:34;;;;;;;1.50;0.85;;;12.30;99.90;;;;;;5033834;28;20041;-82
2022/10/16 04:42:00;;;;;;;2.30;1.08;;;12.40;99.90;;;;;;5050467;28;20114;-82
2022/10/16 04:44:26;;;;;;;2.08;1.10;;;12.40;99.90;;;;;;5052632;28;20475;-79
2022/10/16 04:46:51;;;;;;;3.33;1.17;;;12.40;99.90;;;;;;5050618;28;20037;-79
2022/10/16 04:49:17;;;;;;;3.03;1.23;;;12.40;99.90;;;;;;5051432;28;20521;-79
2022/10/16 04:51:43;;;;;;;2.40;0.88;;;12.40;99.90;;;;;;5051565;28;20140;-79
2022/10/16 04:54:09;;;;;;;4.78;1.10;;;12.50;99.90;;;;;;5035388;28;20051;-79
2022/10/16 04:56:42;;;;;;;1.85;0.80;;;12.50;99.90;;;;;;5051760;28;20501;-79
2022/10/16 04:59:08;;;;;;;1.13;0.75;;;12.50;99.90;;;;;;5035030;28;20044;-80
2022/10/16 05:01:34;;;;;;;1.52;1.17;;;12.50;99.90;;;;;;5037800;28;20045;-80
2022/10/16 05:04:00;;;;;;;1.75;0.93;;;12.50;99.90;;;;;;5051087;28;20106;-79
2022/10/16 05:06:26;;;;;;;3.60;0.88;;;12.50;99.90;;;;;;5051300;28;20368;-79
2022/10/16 05:08:51;;;;;;;2.95;1.20;;;12.40;99.90;;;;;;5029905;28;20046;-79
2022/10/16 05:11:17;;;;;;;3.10;1.50;;;12.40;99.90;;;;;;5042219;28;20075;-79
2022/10/16 05:13:43;;;;;;;2.92;1.08;;;12.40;99.90;;;;;;5032698;28;20555;-80
2022/10/16 05:16:08;;;;;;;3.20;1.23;;;12.40;99.90;;;;;;5034895;28;20044;-79
2022/10/16 05:18:34;;;;;;;5.35;1.48;;;12.40;99.90;;;;;;5051357;28;20498;-80
2022/10/16 05:21:00;;;;;;;4.15;1.38;;;12.40;99.90;;;;;;5033736;28;20372;-81
2022/10/16 05:23:25;;;;;;;2.95;1.23;;;12.50;99.90;;;;;;5052766;28;20041;-81
2022/10/16 05:25:57;;;;;;;1.70;1.00;;;12.40;99.90;;;;;;5048582;28;20214;-81
2022/10/16 05:28:25;;;;;;;5.45;1.23;;;12.40;99.90;;;;;;5051983;28;20395;-81
2022/10/16 05:30:50;;;;;;;1.45;0.93;;;12.40;99.90;;;;;;5052702;28;20131;-81
2022/10/16 05:33:16;;;;;;;2.47;1.73;;;12.40;99.90;;;;;;5035537;28;20602;-82
2022/10/16 05:35:43;;;;;;;2.40;1.27;;;12.40;99.90;;;;;;5052553;28;20103;-82
2022/10/16 05:38:09;;;;;;;1.77;1.35;;;12.30;99.90;;;;;;5049755;28;20041;-82
2022/10/16 05:40:35;;;;;;;3.60;1.50;;;12.40;99.90;;;;;;5034614;28;20051;-82
2022/10/16 05:43:00;;;;;;;2.63;1.40;;;12.30;99.90;;;;;;5042354;28;20421;-82
2022/10/16 05:45:26;;;;;;;3.03;1.85;;;12.40;99.90;;;;;;5051906;28;20033;-82
2022/10/16 05:47:52;;;;;;;9.27;1.48;;;12.40;99.90;;;;;;5051833;28;20040;-82
2022/10/16 05:50:18;;;;;;;2.00;1.40;;;12.30;99.90;;;;;;5050390;28;20041;-80
2022/10/16 05:52:44;;;;;;;4.80;1.10;;;12.30;99.90;;;;;;5019080;28;20036;-80
2022/10/16 05:55:09;;;;;;;2.92;1.35;;;12.20;99.90;;;;;;5050228;28;20537;-80
2022/10/16 05:57:35;;;;;;;2.90;1.40;;;12.20;99.90;;;;;;5035080;28;20041;-81
2022/10/16 06:00:00;;;;;;;2.75;1.30;;;12.20;99.90;;;;;;5052541;28;20041;-81
2022/10/16 06:02:27;;;;;;;2.70;1.30;;;12.20;99.90;;;;;;5048673;28;20530;-81
2022/10/16 06:04:55;;;;;;;4.50;1.48;;;12.20;99.90;;;;;;5052720;28;20043;-81
2022/10/16 06:07:22;;;;;;;2.53;1.92;;;12.20;99.90;;;;;;5035976;28;20434;-79
2022/10/16 06:09:51;;;;;;;2.15;1.27;;;12.30;99.90;;;;;;5056151;28;20044;-80
2022/10/16 06:12:18;;;;;;;4.60;2.25;;;12.30;99.90;;;;;;5037880;28;20120;-80
2022/10/16 06:14:46;;;;;;;1.77;1.20;;;12.30;99.90;;;;;;5055724;28;20449;-80
2022/10/16 06:17:13;;;;;;;2.10;1.75;;;12.30;99.90;;;;;;5039680;28;20037;-80
2022/10/16 06:19:39;;;;;;;3.10;1.40;;;12.30;99.90;;;;;;5055683;28;20040;-79
2022/10/16 06:22:04;;;;;;;2.28;1.30;;;12.30;99.90;;;;;;5051196;28;20045;-79
2022/10/16 06:24:30;;;;;;;4.93;1.35;;;12.40;99.90;;;;;;5055209;28;20413;-80
2022/10/16 06:26:56;;;;;;;2.70;1.50;;;12.40;99.90;;;;;;5045073;28;20048;-80
2022/10/16 06:29:22;;;;;;;6.57;1.40;;;12.40;99.90;;;;;;5053925;28;20033;-81
2022/10/16 06:31:47;;;;;;;2.70;1.50;;;12.50;99.90;;;;;;5030213;28;20120;-80
2022/10/16 06:34:13;;;;;;;4.18;1.92;;;12.50;99.90;;;;;;5047158;28;20115;-80
2022/10/16 06:36:39;;;;;;;3.03;1.48;;;12.50;99.90;;;;;;5054324;28;20055;-80
2022/10/16 06:39:07;;;;;;;4.18;1.40;;;12.60;99.90;;;;;;5049641;28;20052;-81
2022/10/16 06:41:33;;;;;;;3.50;1.00;;;12.60;99.90;;;;;;5038743;28;20053;-82
2022/10/16 06:43:59;;;;;;;1.88;1.45;;;12.70;99.90;;;;;;5054118;28;20045;-82
2022/10/16 06:46:26;;;;;;;2.40;1.40;;;12.60;99.90;;;;;;5053813;28;20510;-82
2022/10/16 06:48:52;;;;;;;4.25;1.52;;;12.70;99.90;;;;;;5054390;28;20095;-82
2022/10/16 06:51:20;;;;;;;3.58;1.20;;;12.60;99.90;;;;;;5038416;28;20041;-82
2022/10/16 06:53:51;;;;;;;4.28;1.45;;;12.70;99.90;;;;;;5036728;28;20094;-82
2022/10/16 06:56:25;;;;;;;1.30;0.90;;;12.70;99.90;;;;;;5052716;28;20549;-82
2022/10/16 06:58:52;;;;;;;3.30;1.20;;;12.70;99.90;;;;;;5039925;28;20029;-80
2022/10/16 07:01:20;;;;;;;1.45;1.10;;;12.80;99.90;;;;;;5038066;28;20087;-81
2022/10/16 07:03:47;;;;;;;5.18;1.10;;;12.80;99.90;;;;;;5054830;28;20379;-80
2022/10/16 07:06:16;;;;;;;2.97;1.20;;;12.80;99.90;;;;;;5048650;28;20127;-80
2022/10/16 07:08:44;;;;;;;4.10;1.10;;;12.80;99.90;;;;;;5037990;28;20105;-81
2022/10/16 07:11:15;;;;;;;3.25;1.35;;;12.80;99.90;;;;;;5038346;28;20053;-81
2022/10/16 07:13:43;;;;;;;4.72;1.30;;;12.80;99.90;;;;;;5053359;28;20486;-82
2022/10/16 07:16:10;;;;;;;2.55;1.38;;;12.80;99.90;;;;;;5018420;28;20037;-82
2022/10/16 07:18:38;;;;;;;7.80;1.80;;;12.90;99.90;;;;;;5051820;28;20052;-82
2022/10/16 07:21:28;;;;;;;1.70;0.95;;;12.90;99.90;;;;;;5036933;28;20037;-82
2022/10/16 07:23:57;;;;;;;3.65;1.30;;;12.90;99.90;;;;;;5068241;28;20075;-82
2022/10/16 07:26:24;;;;;;;2.35;1.50;;;12.90;99.90;;;;;;5062628;28;20136;-82
2022/10/16 07:28:50;;;;;;;2.95;1.00;;;12.90;99.90;;;;;;5032872;28;20052;-83
2022/10/16 07:31:18;;;;;;;2.33;1.23;;;12.90;99.90;;;;;;5044075;28;20045;-82
2022/10/16 07:33:45;;;;;;;2.35;1.52;;;12.90;99.90;;;;;;5033410;28;20110;-82
2022/10/16 07:36:12;;;;;;;3.45;1.40;;;12.90;99.90;;;;;;5052182;28;20510;-82
2022/10/16 07:38:38;;;;;;;2.95;1.30;;;12.90;99.90;;;;;;5033090;28;20387;-82
2022/10/16 07:41:06;;;;;;;2.83;1.33;;;12.80;99.90;;;;;;5053394;28;20556;-82
2022/10/16 07:43:32;;;;;;;2.92;1.30;;;12.90;99.90;;;;;;5052515;28;20049;-82
2022/10/16 07:45:59;;;;;;;2.70;1.60;;;12.90;99.90;;;;;;5054662;28;20155;-82
2022/10/16 07:48:30;;;;;;;3.40;1.70;;;13.10;99.90;;;;;;5047472;28;20044;-81
2022/10/16 07:51:04;;;;;;;1.70;1.02;;;13.20;99.90;;;;;;5054367;28;20041;-81
2022/10/16 07:53:31;;;;;;;2.90;1.40;;;13.50;99.90;;;;;;5052940;28;20118;-81
2022/10/16 07:56:01;;;;;;;3.83;1.52;;;13.50;99.90;;;;;;5036480;28;20120;-81
2022/10/16 07:58:28;;;;;;;2.15;1.23;;;13.60;99.90;;;;;;5023943;28;20033;-80
2022/10/16 08:00:55;;;;;;;2.28;1.13;;;13.70;99.90;;;;;;5034998;28;20045;-81
2022/10/16 08:03:20;;;;;;;2.42;1.40;;;13.80;99.90;;;;;;5052751;28;20090;-82
2022/10/16 08:05:47;;;;;;;3.78;1.75;;;13.80;99.90;;;;;;5052763;28;20495;-82
2022/10/16 08:08:18;;;;;;;4.00;1.40;;;14.00;99.90;;;;;;5034319;28;20037;-82
2022/10/16 08:10:44;;;;;;;6.82;2.53;;;14.00;99.90;;;;;;5052986;28;20037;-83
2022/10/16 08:13:10;;;;;;;2.90;1.30;;;14.00;99.90;;;;;;5053335;28;20053;-83
2022/10/16 08:15:35;;;;;;;5.90;1.80;;;14.00;99.90;;;;;;5036512;28;20372;-83
2022/10/16 08:18:03;;;;;;;2.50;1.60;;;14.10;99.90;;;;;;5035239;28;20037;-82
2022/10/16 08:20:30;;;;;;;3.90;1.38;;;14.10;99.90;;;;;;5051412;28;20036;-81
2022/10/16 08:22:56;;;;;;;2.72;0.95;;;14.50;99.90;;;;;;5053976;28;20083;-81
2022/10/16 08:25:23;;;;;;;3.13;1.50;;;14.50;99.90;;;;;;5035837;28;20455;-81
2022/10/16 08:27:49;;;;;;;1.85;1.02;;;14.70;99.90;;;;;;5053640;28;20040;-81
2022/10/16 08:30:16;;;;;;;2.35;1.23;;;14.60;99.90;;;;;;5053205;28;20516;-81
2022/10/16 08:32:42;;;;;;;4.00;1.33;;;14.60;99.90;;;;;;5051006;28;20036;-81
2022/10/16 08:35:09;;;;;;;5.28;0.90;;;14.90;99.90;;;;;;5049903;28;20677;-81
2022/10/16 08:37:36;;;;;;;1.85;0.73;;;14.90;99.90;;;;;;5053440;28;20044;-81
2022/10/16 08:40:02;;;;;;;1.00;0.68;;;15.60;99.90;;;;;;5053364;28;20387;-80
2022/10/16 08:42:32;;;;;;;2.25;1.33;;;16.10;99.90;;;;;;5052426;28;20055;-81
2022/10/16 08:45:04;;;;;;;2.72;1.08;;;16.90;99.90;;;;;;5052847;28;20040;-81
2022/10/16 08:47:58;;;;;;;2.50;0.80;;;17.70;99.90;;;;;;5050962;28;20041;-81
2022/10/16 08:50:27;;;;;;;2.33;0.95;;;17.80;99.90;;;;;;5048750;28;20124;-81
2022/10/16 08:52:55;;;;;;;4.63;1.35;;;17.90;99.90;;;;;;5052260;28;20040;-80
2022/10/16 08:55:42;;;;;;;2.80;0.93;;;18.00;99.90;;;;;;5052317;28;20064;-81
2022/10/16 08:58:16;;;;;;;2.17;1.05;;;18.30;99.90;;;;;;5053523;28;20036;-81
2022/10/16 09:00:45;;;;;;;4.47;1.20;;;18.70;99.90;;;;;;5036883;28;20075;-81
2022/10/16 09:03:36;;;;;;;1.75;0.63;;;19.10;99.90;;;;;;5050939;28;20490;-81
2022/10/16 09:06:07;;;;;;;4.13;1.30;;;19.70;99.90;;;;;;5036438;28;20391;-81
2022/10/16 09:08:52;;;;;;;2.15;0.82;;;20.10;99.90;;;;;;5035779;28;20116;-81
2022/10/16 09:11:44;;;;;;;4.68;1.20;;;20.30;99.90;;;;;;5052884;28;20095;-82
2022/10/16 09:14:21;;;;;;;4.28;1.20;;;19.80;99.90;;;;;;5033665;28;20044;-82
2022/10/16 09:17:00;;;;;;;3.38;1.10;;;19.10;99.90;;;;;;5050207;28;20057;-82
2022/10/16 09:19:37;;;;;;;4.13;1.50;;;19.40;99.90;;;;;;5034234;28;20388;-82
2022/10/16 09:22:13;;;;;;;4.00;1.15;;;19.90;99.90;;;;;;5052945;28;20110;-83
2022/10/16 09:24:39;;;;;;;2.33;1.08;;;;;;;;;;5050747;28;20094;-82
2022/10/16 09:27:07;;;;;;;1.60;0.95;;;;;;;;;;5049422;28;20498;-82
2022/10/16 09:29:34;;;;;;;2.78;1.00;;;;;;;;;;5048174;28;20044;-81
2022/10/16 09:32:08;;;;;;;3.13;1.00;;;;;;;;;;5035562;28;20044;-81
2022/10/16 09:34:38;;;;;;;1.20;0.65;;;22.50;99.90;;;;;;5034704;28;20037;-82
2022/10/16 09:37:09;;;;;;;4.25;1.10;;;22.80;99.90;;;;;;5048239;28;20045;-82
2022/10/16 09:39:52;;;;;;;5.38;1.80;;;23.30;99.90;;;;;;5050706;28;20045;-82
2022/10/16 09:42:23;;;;;;;4.50;0.88;;;23.30;99.60;;;;;;5031000;28;20040;-82
2022/10/16 09:44:53;;;;;;;2.05;1.13;;;23.90;99.90;;;;;;5032802;28;20038;-80
2022/10/16 09:47:27;;;;;;;4.43;0.88;;;24.20;99.00;;;;;;5032981;28;20495;-80
2022/10/16 09:50:05;;;;;;;5.53;1.17;;;24.70;98.50;;;;;;5051722;28;20033;-80
2022/10/16 09:52:32;;;;;;;3.10;1.40;;;24.90;95.80;;;;;;5049319;28;20074;-80
2022/10/16 09:55:14;;;;;;;3.67;1.55;;;24.80;95.70;;;;;;5050874;28;20048;-80
2022/10/16 09:57:53;;;;;;;3.58;1.08;;;24.30;96.30;;;;;;5035085;28;20041;-80
2022/10/16 10:00:20;;;;;;;4.20;1.13;;;24.30;96.10;;;;;;5034445;28;20036;-83
2022/10/16 10:02:46;;;;;;;4.65;1.05;;;24.30;95.00;;;;;;5050997;28;20052;-83
2022/10/16 10:05:39;;;;;;;2.05;0.80;;;24.00;95.90;;;;;;5052054;28;20041;-83
2022/10/16 10:08:05;;;;;;;10.25;1.00;;;24.50;95.40;;;;;;5049853;28;20053;-83
2022/10/16 10:10:42;;;;;;;2.38;1.13;;;24.60;94.70;;;;;;5032488;28;20113;-83
2022/10/16 10:13:24;;;;;;;2.80;0.90;;;24.50;95.10;;;;;;5044866;28;20128;-85
2022/10/16 10:15:50;;;;;;;1.60;0.90;;;24.70;94.60;;;;;;5035411;28;20075;-83
2022/10/16 10:18:19;;;;;;;3.45;1.08;;;24.70;94.70;;;;;;5042318;28;20065;-82
2022/10/16 10:20:45;;;;;;;3.80;1.15;;;24.80;93.10;;;;;;5051875;28;20111;-82
2022/10/16 10:23:30;;;;;;;4.22;1.30;;;25.10;93.30;;;;;;5051559;28;20041;-83
2022/10/16 10:26:17;;;;;;;5.28;1.30;;;24.40;92.20;;;;;;5026788;28;20033;-78
2022/10/16 10:29:00;;;;;;;3.65;1.00;;;24.20;92.40;;;;;;5031780;28;20044;-78
2022/10/16 10:31:55;;;;;;;5.00;1.35;;;24.60;93.40;;;;;;5046875;28;20041;-78
2022/10/16 10:34:54;;;;;;;6.22;1.05;;;24.80;93.70;;;;;;5009066;28;20096;-81
2022/10/16 10:37:49;;;;;;;2.63;1.45;;;24.90;93.50;;;;;;5051020;28;20413;-82
2022/10/16 10:40:33;;;;;;;4.18;1.50;;;24.80;92.40;;;;;;5030861;28;20389;-81
2022/10/16 10:43:04;;;;;;;2.70;0.90;;;24.90;91.50;;;;;;5049605;28;20037;-82
2022/10/16 10:45:43;;;;;;;4.53;1.13;;;24.40;91.60;;;;;;5048377;28;20036;-81
2022/10/16 10:48:26;;;;;;;4.15;1.63;;;24.10;91.60;;;;;;5026629;28;20033;-81
2022/10/16 10:51:15;;;;;;;5.88;1.25;;;23.90;92.10;;;;;;5050272;28;20041;-84
2022/10/16 10:53:45;;;;;;;2.47;1.02;;;;;;;;;;5048735;28;20034;-84
2022/10/16 10:56:24;;;;;;;4.55;0.80;;;;;;;;;;5052506;28;20380;-83
2022/10/16 10:59:02;;;;;;;6.68;1.30;;;;;;;;;;5048313;28;20040;-84
2022/10/16 11:01:37;;;;;;;3.88;1.52;;;;;;;;;;5035701;28;20058;-84
2022/10/16 11:04:03;;;;;;;5.40;1.00;;;;;;;;;;5061844;28;20041;-84
2022/10/16 11:06:39;;;;;;;3.03;1.13;;;;;;;;;;5034649;28;20049;-81
2022/10/16 11:09:23;;;;;;;5.25;1.30;;;23.90;92.60;;;;;;5043380;28;20041;-81
2022/10/16 11:12:02;;;;;;;7.03;2.13;;;23.70;93.50;;;;;;5035042;28;20070;-81
2022/10/16 11:14:36;;;;;;;11.98;1.65;;;21.80;93.10;;;;;;5060791;28;20033;-81
2022/10/16 11:17:19;;;;;;;4.97;1.00;;;21.50;93.50;;;;;;5050545;28;20044;-80
2022/10/16 11:20:13;;;;;;;2.78;1.27;;;20.70;96.00;;;;;;5037010;28;20036;-80
2022/10/16 11:22:56;;;;;;;5.35;2.60;;;19.90;97.50;;;;;;5048661;28;20690;-80
2022/10/16 11:25:29;;;;;;;4.93;0.93;;;19.70;98.10;;;;;;5057324;28;20045;-78
2022/10/16 11:28:01;;;;;;;5.75;1.30;;;19.90;97.60;;;;;;5053858;28;20082;-79
2022/10/16 11:30:30;;;;;;;4.00;1.60;;;20.30;97.40;;;;;;5052060;28;20059;-79
2022/10/16 11:33:11;;;;;;;4.70;1.30;;;20.10;96.90;;;;;;5033334;28;20502;-79
2022/10/16 11:35:57;;;;;;;5.95;2.03;;;19.80;96.80;;;;;;5028266;28;20043;-79
2022/10/16 11:39:00;;;;;;;4.60;1.80;;;19.50;96.90;;;;;;5062654;28;20028;-79
2022/10/16 11:41:49;;;;;;;5.40;2.50;;;19.30;97.60;;;;;;5018525;28;20041;-80
2022/10/16 11:44:49;;;;;;;3.78;1.75;;;19.10;97.30;;;;;;5053591;28;20044;-81
2022/10/16 11:47:20;;;;;;;4.85;1.67;;;18.70;98.50;;;;;;5069615;28;20048;-80
2022/10/16 11:49:49;;;;;;;3.47;1.08;;;18.60;98.50;;;;;;5033113;28;20033;-85
2022/10/16 11:52:40;;;;;;;3.40;1.27;;;18.50;99.20;;;;;;5044364;28;20043;-81
2022/10/16 11:55:23;;;;;;;4.05;1.00;;;18.40;99.40;;;;;;5036836;28;20514;-79
2022/10/16 11:57:57;;;;;;;11.68;2.45;;;18.40;99.90;;;;;;5047481;28;20120;-80
2022/10/16 12:00:42;;;;;;;4.55;1.35;;;18.50;99.90;;;;;;5036507;28;20123;-80
2022/10/16 12:03:28;;;;;;;6.32;1.35;;;18.30;99.90;;;;;;5048197;28;20057;-80
2022/10/16 12:06:11;;;;;;;6.13;1.05;;;18.30;99.90;;;;;;5024208;28;20049;-80
2022/10/16 12:08:37;;;;;;;4.68;1.45;;;18.20;99.90;;;;;;5037394;28;20052;-80
2022/10/16 12:11:30;;;;;;;3.25;0.90;;;18.20;99.90;;;;;;5033315;28;20049;-80
2022/10/16 12:14:11;;;;;;;7.95;1.80;;;18.00;99.90;;;;;;5025649;28;20052;-79
2022/10/16 12:17:01;;;;;;;7.63;1.98;;;17.80;99.90;;;;;;5053446;28;20037;-80
2022/10/16 12:19:31;;;;;;;4.05;1.10;;;17.80;99.90;;;;;;5046448;28;20049;-80
2022/10/16 12:22:01;;;;;;;5.40;1.17;;;17.70;99.90;;;;;;5057950;28;20036;-80
2022/10/16 12:24:39;;;;;;;7.88;1.50;;;17.70;99.90;;;;;;5052700;28;20094;-80
2022/10/16 12:27:31;;;;;;;9.45;1.48;;;17.60;99.90;;;;;;5047766;28;20123;-80
2022/10/16 12:30:03;;;;;;;7.25;1.02;;;17.60;99.90;;;;;;5043471;28;20044;-80
2022/10/16 12:32:37;;;;;;;4.20;1.35;;;17.70;99.90;;;;;;5052598;28;20174;-80
2022/10/16 12:35:05;;;;;;;3.00;1.08;;;17.60;99.90;;;;;;5035861;28;20045;-80
2022/10/16 12:37:32;;;;;;;8.50;1.67;;;17.60;99.90;;;;;;5038165;28;20498;-80
2022/10/16 12:39:59;;;;;;;2.45;1.05;;;17.60;99.90;;;;;;5051295;28;20041;-80
2022/10/16 12:42:27;;;;;;;5.28;1.00;;;17.50;99.90;;;;;;5033698;28;20155;-80
2022/10/16 12:44:54;;;;;;;2.35;0.70;;;17.40;99.90;;;;;;5032782;28;20045;-80
2022/10/16 12:47:36;;;;;;;4.65;1.50;;;17.40;99.90;;;;;;5069365;28;20405;-79
2022/10/16 12:50:22;;;;;;;2.47;0.73;;;17.40;99.90;;;;;;5052091;28;20051;-79
2022/10/16 12:52:48;;;;;;;2.72;0.80;;;17.50;99.90;;;;;;5052304;28;20410;-79
2022/10/16 12:55:21;;;;;;;6.82;1.63;;;17.60;99.90;;;;;;5060635;28;20048;-79
2022/10/16 12:58:07;;;;;;;4.53;1.05;;;17.70;99.90;;;;;;5043712;28;20036;-80
2022/10/16 13:00:45;;;;;;;3.47;0.95;;;17.70;99.90;;;;;;5029032;28;20418;-78
2022/10/16 13:03:27;;;;;;;2.63;1.02;;;17.90;99.90;;;;;;5032797;28;20041;-80
2022/10/16 13:06:30;;;;;;;3.47;0.85;;;17.90;99.90;;;;;;5036435;28;20495;-80
2022/10/16 13:09:11;;;;;;;3.08;1.00;;;18.20;99.80;;;;;;5039576;28;20535;-79
2022/10/16 13:12:15;;;;;;;5.65;1.50;;;18.30;99.90;;;;;;5045029;28;20033;-80
2022/10/16 13:15:26;;;;;;;4.75;1.05;;;18.40;99.90;;;;;;5040073;28;20076;-80